Time;durP1;ratioP1;P1;durP2;ratioP2;P2;SDS_P1;SDS_P2;PMS_P1;PMS_P2;Temp;Humidity;BMP_temperature;BMP_pressure;BME280_temperature;BME280_humidity;BME280_pressure;Samples;Min_cycle;Max_cycle;Signal;HPM_P1;HPM_P2
2021/01/10 00:02:56;;;;;;;;;56.40;44.00;;;;;8.75;41.59;99260.34;6161364;28;125701;-59
2021/01/10 00:05:57;;;;;;;;;61.00;47.00;;;;;8.98;41.82;99287.72;6162236;28;126645;-59
2021/01/10 00:08:59;;;;;;;;;60.20;46.00;;;;;8.97;41.95;99292.25;6161468;28;127056;-59
2021/01/10 00:12:00;;;;;;;;;60.00;46.00;;;;;8.99;42.04;99292.06;6162188;28;126835;-59
2021/01/10 00:15:06;;;;;;;;;58.40;46.00;;;;;8.89;41.96;99275.47;6162432;28;126639;-59
2021/01/10 00:18:08;;;;;;;;;60.00;46.00;;;;;8.76;41.95;99270.88;6146185;28;125659;-59
2021/01/10 00:21:09;;;;;;;;;61.00;46.25;;;;;8.96;41.82;99297.84;6162316;28;126229;-59
2021/01/10 00:24:12;;;;;;;;;61.20;47.20;;;;;8.89;41.87;99288.94;6162314;28;126723;-59
2021/01/10 00:27:15;;;;;;;;;59.20;46.00;;;;;8.97;41.84;99308.41;6161559;28;127471;-59
2021/01/10 00:30:21;;;;;;;;;61.60;48.00;;;;;8.81;41.93;99286.38;6157257;28;126197;-60
2021/01/10 00:33:23;;;;;;;;;59.60;46.00;;;;;8.95;42.03;99312.31;6161507;28;126911;-59
2021/01/10 00:36:37;;;;;;;;;61.60;46.00;;;;;8.96;42.11;99311.28;6161467;28;125198;-59
2021/01/10 00:39:38;;;;;;;;;64.00;49.00;;;;;8.88;42.12;99316.84;6158151;28;126593;-58
2021/01/10 00:42:41;;;;;;;;;63.20;50.00;;;;;8.83;42.58;99313.91;6160984;28;126677;-59
2021/01/10 00:45:43;;;;;;;;;66.00;50.00;;;;;8.75;42.73;99311.41;6146449;28;126684;-59
2021/01/10 00:48:44;;;;;;;;;66.40;51.00;;;;;8.42;43.00;99270.91;6161075;28;126783;-59
2021/01/10 00:51:49;;;;;;;;;67.00;51.00;;;;;8.66;43.23;99314.25;6161177;28;127542;-59
2021/01/10 00:54:50;;;;;;;;;66.80;51.00;;;;;8.30;43.42;99264.44;6153139;28;126861;-59
2021/01/10 00:57:52;;;;;;;;;67.60;51.00;;;;;8.62;43.54;99323.75;6137988;28;126242;-59
2021/01/10 01:00:58;;;;;;;;;64.00;50.00;;;;;8.63;43.46;99319.19;6135828;28;126147;-59
2021/01/10 01:03:59;;;;;;;;;67.00;52.00;;;;;8.30;43.35;99273.34;6159045;28;125350;-59
2021/01/10 01:07:01;;;;;;;;;65.00;50.00;;;;;8.02;43.15;99229.53;6159610;28;127092;-59
2021/01/10 01:10:04;;;;;;;;;67.00;52.00;;;;;8.65;43.32;99325.19;6126633;28;124920;-59
2021/01/10 01:13:05;;;;;;;;;64.80;49.60;;;;;8.65;43.10;99330.56;6160883;28;126999;-59
2021/01/10 01:16:07;;;;;;;;;65.00;50.00;;;;;8.64;43.14;99332.44;6160759;28;125532;-59
2021/01/10 01:19:09;;;;;;;;;64.75;48.75;;;;;8.62;43.29;99333.66;6160106;28;125068;-59
2021/01/10 01:22:11;;;;;;;;;65.00;49.50;;;;;8.63;42.95;99325.41;6160327;28;126483;-59
2021/01/10 01:25:13;;;;;;;;;62.75;49.75;;;;;8.44;42.68;99287.69;6160103;28;127229;-59
2021/01/10 01:28:15;;;;;;;;;66.00;49.40;;;;;8.69;42.61;99324.63;6132875;28;126611;-59
2021/01/10 01:31:18;;;;;;;;;65.80;50.40;;;;;8.74;42.70;99323.19;6143119;28;126695;-59
2021/01/10 01:34:20;;;;;;;;;64.00;48.40;;;;;8.76;42.50;99324.63;6159855;28;126524;-59
2021/01/10 01:37:22;;;;;;;;;64.00;48.60;;;;;8.81;42.50;99321.34;6159669;28;126550;-59
2021/01/10 01:40:23;;;;;;;;;65.75;49.50;;;;;8.83;42.30;99324.69;6159904;28;126242;-59
2021/01/10 01:43:25;;;;;;;;;61.80;46.00;;;;;8.82;42.06;99326.53;6153275;28;125444;-59
2021/01/10 01:46:28;;;;;;;;;63.00;48.20;;;;;8.80;42.37;99330.44;6160546;28;125144;-59
2021/01/10 01:49:30;;;;;;;;;65.00;50.00;;;;;8.75;42.62;99331.03;6159438;28;124659;-59
2021/01/10 01:52:33;;;;;;;;;63.40;48.20;;;;;8.65;42.54;99322.50;6159770;28;125232;-59
2021/01/10 01:55:36;;;;;;;;;65.00;49.00;;;;;8.74;42.64;99331.25;6146350;28;124809;-59
2021/01/10 01:58:55;;;;;;;;;65.00;50.00;;;;;8.78;42.46;99329.81;6147212;28;125875;-59
2021/01/10 02:01:57;;;;;;;;;62.00;48.00;;;;;8.80;42.29;99325.06;6135909;28;125298;-58
2021/01/10 02:05:13;;;;;;;;;64.75;49.00;;;;;8.81;42.51;99330.25;6150833;28;125361;-58
2021/01/10 02:08:15;;;;;;;;;62.00;48.00;;;;;8.77;42.60;99331.66;6145029;28;124035;-59
2021/01/10 02:11:19;;;;;;;;;65.00;49.00;;;;;8.64;42.79;99310.13;6160157;28;126786;-59
2021/01/10 02:14:25;;;;;;;;;65.00;50.40;;;;;8.69;42.82;99331.84;6159449;28;126541;-58
2021/01/10 02:17:28;;;;;;;;;60.60;47.60;;;;;8.24;42.73;99257.97;6159823;28;126714;-60
2021/01/10 02:20:32;;;;;;;;;62.00;47.60;;;;;8.64;42.80;99320.88;6159723;28;126146;-59
2021/01/10 02:23:36;;;;;;;;;62.00;47.00;;;;;8.66;42.78;99330.38;6159074;28;125712;-59
2021/01/10 02:26:38;;;;;;;;;65.25;49.25;;;;;8.53;42.67;99314.19;6159636;28;126348;-59
2021/01/10 02:29:40;;;;;;;;;64.50;48.00;;;;;8.41;42.69;99294.25;6158010;28;126995;-60
2021/01/10 02:32:44;;;;;;;;;64.00;49.20;;;;;8.66;42.56;99329.53;6159047;28;126461;-59
2021/01/10 02:35:50;;;;;;;;;65.00;48.40;;;;;8.61;42.76;99322.06;6156220;28;124656;-59
2021/01/10 02:39:13;;;;;;;;;66.60;49.00;;;;;8.59;42.81;99328.69;6158611;28;124565;-59
2021/01/10 02:42:46;;;;;;;;;62.00;48.40;;;;;8.59;42.70;99326.84;6144104;28;124770;-58
2021/01/10 02:45:51;;;;;;;;;63.33;48.00;;;;;8.61;42.71;99337.38;6153667;28;124908;-59
2021/01/10 02:48:54;;;;;;;;;62.00;49.00;;;;;8.35;42.80;99326.47;6158890;28;124447;-59
2021/01/10 02:51:55;;;;;;;;;64.40;49.00;;;;;8.61;42.75;99324.75;6158442;28;127242;-59
2021/01/10 02:54:58;;;;;;;;;62.00;48.00;;;;;8.62;42.53;99322.91;6159144;28;127426;-59
2021/01/10 02:58:11;;;;;;;;;63.40;49.40;;;;;8.60;42.57;99320.41;6158528;28;125250;-59
2021/01/10 03:01:15;;;;;;;;;62.00;47.00;;;;;8.59;42.50;99323.31;6147531;28;124785;-59
2021/01/10 03:04:17;;;;;;;;;62.20;47.00;;;;;8.65;42.43;99336.78;6158619;28;126692;-59
2021/01/10 03:07:20;;;;;;;;;60.00;46.75;;;;;8.36;42.53;99294.00;6150787;28;125767;-58
2021/01/10 03:10:22;;;;;;;;;63.20;47.00;;;;;8.51;42.39;99307.34;6158946;28;125041;-58
2021/01/10 03:13:24;;;;;;;;;63.00;48.00;;;;;8.62;42.52;99322.91;6158520;28;124547;-59
2021/01/10 03:16:26;;;;;;;;;61.00;47.00;;;;;8.60;42.43;99322.28;6159193;28;127499;-59
2021/01/10 03:19:27;;;;;;;;;58.40;46.00;;;;;8.57;42.46;99318.13;6158284;28;125180;-59
2021/01/10 03:22:29;;;;;;;;;60.40;46.00;;;;;8.58;42.46;99313.59;6158550;28;125496;-59
2021/01/10 03:25:30;;;;;;;;;58.40;46.00;;;;;8.50;42.29;99311.88;6158784;28;127541;-59
2021/01/10 03:28:32;;;;;;;;;58.00;45.00;;;;;8.58;42.46;99313.59;6157872;28;125133;-59
2021/01/10 03:31:34;;;;;;;;;59.80;45.20;;;;;8.64;42.33;99310.94;6158025;28;125954;-59
2021/01/10 03:34:36;;;;;;;;;59.80;45.60;;;;;8.41;42.28;99280.00;6158426;28;125226;-59
2021/01/10 03:37:38;;;;;;;;;58.80;45.00;;;;;8.24;42.11;99255.28;6157964;28;126637;-59
2021/01/10 03:40:40;;;;;;;;;56.50;44.00;;;;;8.62;42.13;99325.59;6158571;28;124993;-59
2021/01/10 03:43:41;;;;;;;;;56.40;45.00;;;;;8.32;42.09;99276.63;6158635;28;124386;-59
2021/01/10 03:46:42;;;;;;;;;59.40;44.00;;;;;8.64;42.07;99323.56;6158621;28;126606;-59
2021/01/10 03:49:44;;;;;;;;;57.40;44.00;;;;;8.63;41.95;99325.41;6157683;28;126530;-59
2021/01/10 03:52:45;;;;;;;;;57.25;44.75;;;;;8.63;42.14;99327.25;6158119;28;127790;-59
2021/01/10 03:55:47;;;;;;;;;57.60;45.00;;;;;8.59;42.23;99324.16;6157935;28;125292;-59
2021/01/10 03:58:48;;;;;;;;;55.20;44.00;;;;;8.56;42.21;99321.00;6158175;28;125505;-59
2021/01/10 04:01:51;;;;;;;;;60.75;46.00;;;;;8.58;42.19;99325.16;6157270;28;126482;-59
2021/01/10 04:04:52;;;;;;;;;57.00;44.00;;;;;8.53;42.21;99330.31;6157713;28;126521;-59
2021/01/10 04:07:54;;;;;;;;;57.40;44.80;;;;;8.55;42.41;99330.13;6151383;28;127556;-59
2021/01/10 04:10:55;;;;;;;;;57.60;45.00;;;;;8.54;42.22;99337.34;6149382;28;127182;-59
2021/01/10 04:13:56;;;;;;;;;55.20;44.00;;;;;8.53;42.30;99332.16;6158126;28;125349;-58
2021/01/10 04:16:58;;;;;;;;;56.25;43.50;;;;;8.26;42.21;99286.28;6158662;28;126877;-59
2021/01/10 04:19:59;;;;;;;;;55.00;44.00;;;;;8.53;42.17;99332.16;6157934;28;125261;-59
2021/01/10 04:23:01;;;;;;;;;56.00;43.60;;;;;8.37;42.06;99302.91;6158224;28;126527;-59
2021/01/10 04:26:03;;;;;;;;;55.60;43.60;;;;;8.55;42.04;99333.59;6157834;28;125568;-59
2021/01/10 04:29:05;;;;;;;;;56.00;44.20;;;;;8.51;42.06;99326.13;6157872;28;125318;-59
2021/01/10 04:32:06;;;;;;;;;57.60;44.60;;;;;8.21;41.92;99285.22;6157711;28;124975;-59
2021/01/10 04:35:08;;;;;;;;;53.00;42.00;;;;;8.56;41.95;99329.91;6156996;28;125150;-59
2021/01/10 04:38:09;;;;;;;;;52.00;41.00;;;;;8.53;41.77;99324.94;6141588;28;126023;-59
2021/01/10 04:41:15;;;;;;;;;55.00;42.00;;;;;8.55;41.78;99335.50;6159577;28;126624;-59
2021/01/10 04:44:17;;;;;;;;;51.50;40.75;;;;;8.54;41.70;99331.13;6161965;28;126088;-59
2021/01/10 04:47:19;;;;;;;;;53.00;41.40;;;;;8.38;41.71;99308.09;6161530;28;125760;-58
2021/01/10 04:50:23;;;;;;;;;50.60;41.00;;;;;8.56;41.55;99337.13;6161178;28;126556;-58
2021/01/10 04:53:27;;;;;;;;;57.00;42.25;;;;;8.56;41.44;99340.66;6161733;28;124516;-59
2021/01/10 04:56:29;;;;;;;;;50.40;40.20;;;;;8.59;41.24;99337.59;6161287;28;126002;-59
2021/01/10 04:59:32;;;;;;;;;50.40;40.00;;;;;8.61;41.06;99342.75;6161109;28;126354;-59
2021/01/10 05:02:44;;;;;;;;;53.00;40.00;;;;;8.61;40.84;99335.50;6160807;28;126109;-59
2021/01/10 05:05:46;;;;;;;;;48.20;38.00;;;;;8.53;40.68;99335.69;6161024;28;124989;-59
2021/01/10 05:08:50;;;;;;;;;51.40;39.00;;;;;8.32;40.49;99308.88;6153541;28;127742;-59
2021/01/10 05:11:52;;;;;;;;;50.50;39.25;;;;;8.59;40.69;99342.97;6160891;28;126118;-59
2021/01/10 05:14:54;;;;;;;;;49.80;40.20;;;;;8.61;40.90;99348.13;6160859;28;125287;-59
2021/01/10 05:17:57;;;;;;;;;48.00;39.50;;;;;8.64;40.90;99353.13;6161566;28;126674;-59
2021/01/10 05:20:58;;;;;;;;;50.00;38.00;;;;;8.66;40.90;99349.19;6160192;28;127207;-58
2021/01/10 05:24:00;;;;;;;;;48.80;39.20;;;;;8.51;40.83;99334.19;6160971;28;127465;-58
2021/01/10 05:27:02;;;;;;;;;51.75;40.00;;;;;8.34;40.95;99301.47;6160878;28;126518;-58
2021/01/10 05:30:04;;;;;;;;;50.40;41.00;;;;;8.64;40.95;99348.56;6160681;28;126380;-58
2021/01/10 05:33:07;;;;;;;;;52.60;41.00;;;;;8.63;41.21;99354.13;6160402;28;125376;-59
2021/01/10 05:36:08;;;;;;;;;49.40;38.60;;;;;8.62;41.04;99349.78;6160522;28;124963;-59
2021/01/10 05:39:21;;;;;;;;;49.50;40.00;;;;;8.62;40.89;99353.31;6159271;28;125542;-59
2021/01/10 05:42:29;;;;;;;;;53.00;40.80;;;;;8.57;41.13;99349.53;6147220;28;126063;-59
2021/01/10 05:45:36;;;;;;;;;49.00;39.00;;;;;8.53;41.16;99353.66;6160479;28;125902;-59
2021/01/10 05:48:42;;;;;;;;;52.00;40.00;;;;;8.49;41.17;99350.53;6160482;28;125906;-59
2021/01/10 05:51:44;;;;;;;;;52.00;41.00;;;;;8.42;41.37;99344.28;6159193;28;126671;-59
2021/01/10 05:54:50;;;;;;;;;47.60;39.00;;;;;8.38;41.56;99347.56;6160025;28;128073;-59
2021/01/10 05:57:54;;;;;;;;;49.00;39.00;;;;;8.16;41.35;99319.91;6143947;28;126153;-59
2021/01/10 06:01:08;;;;;;;;;48.20;37.00;;;;;8.25;41.47;99342.91;6156390;28;124545;-59
2021/01/10 06:04:21;;;;;;;;;47.00;39.00;;;;;7.92;41.54;99305.03;6144985;28;125958;-59
2021/01/10 06:07:32;;;;;;;;;47.80;38.00;;;;;8.14;41.43;99346.94;6160259;28;124658;-58
2021/01/10 06:10:33;;;;;;;;;47.00;36.00;;;;;8.05;41.55;99340.06;6160038;28;125994;-59
2021/01/10 06:13:47;;;;;;;;;47.00;37.50;;;;;7.99;41.62;99348.06;6159761;28;125004;-59
2021/01/10 06:16:54;;;;;;;;;47.60;37.60;;;;;7.87;41.88;99350.44;6148462;28;124695;-59
2021/01/10 06:20:06;;;;;;;;;46.00;37.00;;;;;7.76;42.10;99342.91;6159767;28;123985;-59
2021/01/10 06:23:08;;;;;;;;;48.25;39.00;;;;;7.66;42.30;99353.13;6159621;28;125176;-59
2021/01/10 06:26:09;;;;;;;;;49.00;38.40;;;;;7.21;42.54;99292.63;6154365;28;125366;-59
2021/01/10 06:29:13;;;;;;;;;44.67;37.00;;;;;7.53;42.63;99359.19;6159225;28;126294;-59
2021/01/10 06:32:15;;;;;;;;;47.00;38.00;;;;;7.49;42.85;99365.13;6159332;28;126053;-59
2021/01/10 06:35:21;;;;;;;;;45.40;36.80;;;;;7.19;42.78;99322.31;6159538;28;125120;-59
2021/01/10 06:38:23;;;;;;;;;46.00;36.00;;;;;7.36;42.80;99357.78;6145145;28;125841;-59
2021/01/10 06:41:24;;;;;;;;;47.00;38.00;;;;;7.25;42.98;99369.00;6158821;28;125338;-59
2021/01/10 06:44:26;;;;;;;;;48.50;37.25;;;;;7.18;43.18;99376.97;6159225;28;125652;-59
2021/01/10 06:47:27;;;;;;;;;47.00;37.50;;;;;7.15;43.38;99382.69;6159786;28;127676;-59
2021/01/10 06:50:30;;;;;;;;;47.40;38.00;;;;;7.17;43.30;99386.03;6158615;28;127540;-59
2021/01/10 06:53:33;;;;;;;;;45.00;37.60;;;;;7.14;43.27;99382.88;6158738;28;125260;-59
2021/01/10 06:56:34;;;;;;;;;50.00;38.00;;;;;6.85;43.43;99352.41;6146694;28;127603;-59
2021/01/10 07:00:00;;;;;;;;;48.00;39.00;;;;;7.03;43.30;99402.13;6155277;28;126202;-59
2021/01/10 07:03:06;;;;;;;;;45.60;38.00;;;;;7.00;43.62;99399.81;6159147;28;126027;-59
2021/01/10 07:06:12;;;;;;;;;49.40;38.40;;;;;7.06;43.71;99404.44;6143078;28;126826;-59
2021/01/10 07:09:15;;;;;;;;;46.60;37.60;;;;;7.17;43.61;99403.97;6159022;28;125893;-59
2021/01/10 07:12:20;;;;;;;;;46.00;36.00;;;;;7.28;43.29;99400.81;6158547;28;126353;-58
2021/01/10 07:15:22;;;;;;;;;47.00;36.40;;;;;7.41;43.01;99403.63;6158133;28;124813;-58
2021/01/10 07:18:23;;;;;;;;;45.60;36.00;;;;;7.49;42.72;99413.41;6159142;28;125070;-58
2021/01/10 07:21:28;;;;;;;;;42.00;34.75;;;;;7.41;42.79;99417.06;6152937;28;124950;-58
2021/01/10 07:24:30;;;;;;;;;40.60;33.40;;;;;7.56;42.81;99417.84;6157616;28;127333;-58
2021/01/10 07:27:34;;;;;;;;;42.33;35.00;;;;;7.70;42.47;99425.03;6154151;28;124714;-58
2021/01/10 07:30:37;;;;;;;;;39.20;33.00;;;;;8.55;41.13;99419.59;6157952;28;127106;-58
2021/01/10 07:33:38;;;;;;;;;41.00;34.00;;;;;9.68;38.83;99418.31;6154014;28;126082;-58
2021/01/10 07:36:46;;;;;;;;;40.50;34.00;;;;;10.81;36.82;99424.44;6157512;28;127873;-58
2021/01/10 07:39:55;;;;;;;;;39.00;33.00;;;;;11.80;34.74;99423.28;6158088;28;127044;-58
2021/01/10 07:43:01;;;;;;;;;38.60;33.00;;;;;12.77;32.95;99428.16;6158745;28;126680;-59
2021/01/10 07:46:06;;;;;;;;;38.00;32.00;;;;;13.55;31.80;99429.19;6158093;28;124632;-59
2021/01/10 07:49:08;;;;;;;;;36.00;31.00;;;;;14.28;30.65;99429.81;6158431;28;126918;-59
2021/01/10 07:52:10;;;;;;;;;37.00;33.00;;;;;15.01;29.35;99426.72;6158627;28;125272;-59
2021/01/10 07:55:23;;;;;;;;;39.00;33.00;;;;;15.68;28.36;99423.56;6158193;28;126433;-59
2021/01/10 07:58:26;;;;;;;;;35.20;31.20;;;;;16.35;27.47;99428.09;6158683;28;126768;-59
2021/01/10 08:01:54;;;;;;;;;39.00;32.00;;;;;16.98;26.28;99429.66;6156956;28;125160;-59
2021/01/10 08:05:09;;;;;;;;;39.00;32.00;;;;;17.68;25.61;99434.47;6158241;28;127528;-59
2021/01/10 08:08:13;;;;;;;;;38.60;33.00;;;;;18.26;24.95;99438.34;6142727;28;126918;-59
2021/01/10 08:11:30;;;;;;;;;42.80;35.00;;;;;18.72;24.23;99442.31;6157980;28;127993;-59
2021/01/10 08:14:32;;;;;;;;;37.20;33.00;;;;;19.22;23.36;99439.94;6157782;28;127836;-58
2021/01/10 08:17:36;;;;;;;;;38.50;33.00;;;;;19.69;22.96;99434.50;6161741;28;125395;-59
2021/01/10 08:20:38;;;;;;;;;36.00;32.00;;;;;20.17;22.15;99437.91;6162232;28;125386;-58
2021/01/10 08:23:42;;;;;;;;;37.00;32.00;;;;;20.65;21.29;99442.91;6162060;28;127264;-58
2021/01/10 08:26:44;;;;;;;;;36.20;29.20;;;;;21.10;20.99;99441.25;6162018;28;126363;-60
2021/01/10 08:29:46;;;;;;;;;32.50;29.00;;;;;21.45;20.61;99440.38;6161127;28;125272;-59
2021/01/10 08:32:48;;;;;;;;;32.00;30.00;;;;;21.72;20.17;99450.97;6161913;28;126871;-59
2021/01/10 08:35:49;;;;;;;;;31.40;29.00;;;;;21.93;19.78;99450.63;6162375;28;127422;-59
2021/01/10 08:38:58;;;;;;;;;32.00;29.75;;;;;22.11;19.64;99451.91;6161504;28;126663;-59
2021/01/10 08:41:59;;;;;;;;;32.00;30.00;;;;;22.34;19.81;99455.88;6162108;28;125879;-60
2021/01/10 08:45:21;;;;;;;;;38.50;31.00;;;;;22.50;18.99;99449.16;6161344;28;125879;-60
2021/01/10 08:48:23;;;;;;;;;33.40;30.00;;;;;22.52;18.92;99424.16;6161441;28;123973;-60
2021/01/10 08:51:39;;;;;;;;;35.00;30.75;;;;;22.86;18.95;99466.25;6162098;28;123990;-60
2021/01/10 08:54:49;;;;;;;;;38.00;31.33;;;;;23.01;18.80;99463.34;6161936;28;128338;-60
2021/01/10 08:57:50;;;;;;;;;36.80;31.20;;;;;22.97;18.61;99459.53;6161516;28;125931;-60
2021/01/10 09:00:52;;;;;;;;;37.00;32.00;;;;;23.25;18.46;99464.22;6161180;28;126925;-59
2021/01/10 09:04:00;;;;;;;;;35.60;31.00;;;;;23.49;18.38;99453.25;6161389;28;128174;-60
2021/01/10 09:07:13;;;;;;;;;36.80;32.00;;;;;23.55;18.14;99432.00;6160336;28;126414;-60
2021/01/10 09:10:18;;;;;;;;;42.20;34.80;;;;;24.00;17.75;99463.63;6146661;28;126937;-60
2021/01/10 09:13:26;;;;;;;;;38.80;32.80;;;;;24.22;17.88;99458.41;6159383;28;127093;-59
2021/01/10 09:16:33;;;;;;;;;40.75;34.00;;;;;24.25;17.89;99426.66;6161016;28;126880;-59
2021/01/10 09:19:37;;;;;;;;;46.60;37.40;;;;;24.66;17.34;99459.94;6154557;28;124726;-59
2021/01/10 09:22:39;;;;;;;;;41.00;34.75;;;;;24.76;17.39;99457.03;6160797;28;128042;-59
2021/01/10 09:25:41;;;;;;;;;46.60;36.60;;;;;24.63;17.29;99422.75;6160591;28;128431;-60
2021/01/10 09:28:42;;;;;;;;;43.80;35.20;;;;;25.01;17.21;99453.88;6159647;28;128495;-59
2021/01/10 09:31:48;;;;;;;;;42.40;34.40;;;;;24.81;16.99;99419.16;6160080;28;125554;-59
2021/01/10 09:34:57;;;;;;;;;40.40;33.60;;;;;24.90;17.06;99442.19;6142262;28;127184;-59
2021/01/10 09:38:07;;;;;;;;;41.00;34.80;;;;;25.06;16.95;99448.28;6160968;28;127283;-60
2021/01/10 09:41:13;;;;;;;;;49.00;37.00;;;;;25.03;16.96;99435.06;6160714;28;125945;-60
2021/01/10 09:44:18;;;;;;;;;40.00;33.80;;;;;25.27;16.74;99448.69;6159806;28;125221;-60
2021/01/10 09:47:34;;;;;;;;;41.50;35.25;;;;;25.25;16.47;99439.91;6160767;28;125915;-60
2021/01/10 09:50:36;;;;;;;;;41.20;33.60;;;;;25.43;16.46;99444.53;6159892;28;126256;-59
2021/01/10 09:53:38;;;;;;;;;44.40;35.40;;;;;25.35;16.41;99451.59;6143827;28;124788;-59
2021/01/10 09:56:39;;;;;;;;;43.00;35.00;;;;;25.26;16.48;99447.09;6160105;28;125443;-59
2021/01/10 09:59:41;;;;;;;;;42.50;35.50;;;;;25.32;16.83;99454.13;6160004;28;127492;-59
2021/01/10 10:02:44;;;;;;;;;43.00;34.60;;;;;25.37;16.69;99443.00;6159189;28;126313;-59
2021/01/10 10:05:58;;;;;;;;;37.80;31.40;;;;;24.70;16.40;99345.19;6159662;28;127175;-59
2021/01/10 10:09:00;;;;;;;;;35.40;32.00;;;;;25.30;16.19;99442.59;6160460;28;126908;-58
2021/01/10 10:12:07;;;;;;;;;34.00;30.75;;;;;25.25;16.30;99443.50;6159626;28;124599;-60
2021/01/10 10:15:09;;;;;;;;;35.00;31.00;;;;;24.75;16.29;99411.25;6166958;28;127158;-59
2021/01/10 10:18:29;;;;;;;;;38.40;32.40;;;;;24.94;16.64;99436.88;6159411;28;128561;-59
2021/01/10 10:21:31;;;;;;;;;39.20;33.00;;;;;25.14;16.59;99438.47;6161626;28;124834;-59
2021/01/10 10:24:32;;;;;;;;;37.75;31.75;;;;;25.10;16.41;99412.59;6153612;28;125155;-59
2021/01/10 10:27:35;;;;;;;;;33.40;30.00;;;;;25.20;16.27;99434.50;6153566;28;127693;-60
2021/01/10 10:30:38;;;;;;;;;35.00;30.00;;;;;24.54;16.90;99435.59;6157229;28;125136;-59
2021/01/10 10:33:40;;;;;;;;;35.40;31.00;;;;;24.50;16.66;99418.84;6157990;28;125537;-59
2021/01/10 10:36:41;;;;;;;;;35.80;32.00;;;;;24.20;17.11;99415.72;6158035;28;125170;-59
2021/01/10 10:39:44;;;;;;;;;36.60;31.60;;;;;24.26;16.81;99411.78;6160259;28;125673;-59
2021/01/10 10:42:47;;;;;;;;;44.00;34.60;;;;;24.23;17.27;99413.22;6165287;28;126228;-59
2021/01/10 10:45:48;;;;;;;;;40.00;33.80;;;;;23.46;17.64;99396.03;6155049;28;127451;-59
2021/01/10 10:48:51;;;;;;;;;40.60;33.00;;;;;23.02;18.08;99409.97;6155345;28;127111;-59
2021/01/10 10:51:52;;;;;;;;;40.00;33.00;;;;;22.06;18.99;99398.94;6157293;28;128034;-59
2021/01/10 10:54:53;;;;;;;;;39.00;33.00;;;;;20.94;19.67;99399.31;6143501;28;126674;-59
2021/01/10 10:57:55;;;;;;;;;35.00;31.20;;;;;20.03;20.53;99402.03;6155977;28;127645;-59
2021/01/10 11:00:56;;;;;;;;;42.75;35.00;;;;;20.14;20.85;99389.97;6157551;28;127917;-59
2021/01/10 11:03:57;;;;;;;;;48.00;37.40;;;;;20.15;20.69;99399.84;6157732;28;127064;-59
2021/01/10 11:06:59;;;;;;;;;42.40;35.00;;;;;19.40;21.06;99392.22;6157206;28;128495;-59
2021/01/10 11:10:00;;;;;;;;;49.00;37.00;;;;;19.81;21.02;99388.56;6158714;28;125390;-59
2021/01/10 11:13:01;;;;;;;;;44.50;35.50;;;;;19.27;21.44;99387.22;6157662;28;126679;-60
2021/01/10 11:16:03;;;;;;;;;44.50;36.00;;;;;18.83;22.15;99382.06;6157283;28;127581;-62
2021/01/10 11:19:06;;;;;;;;;44.50;36.00;;;;;19.11;21.80;99383.56;6157781;28;126213;-59
2021/01/10 11:22:08;;;;;;;;;45.80;36.20;;;;;19.74;21.13;99371.56;6158940;28;126185;-59
2021/01/10 11:25:10;;;;;;;;;38.50;33.75;;;;;20.00;20.80;99375.19;6158436;28;128220;-60
2021/01/10 11:28:11;;;;;;;;;38.00;33.00;;;;;20.07;21.03;99377.66;6158231;28;124839;-60
2021/01/10 11:31:12;;;;;;;;;40.60;34.00;;;;;20.62;20.60;99385.13;6158218;28;124970;-59
2021/01/10 11:34:14;;;;;;;;;23.80;19.80;;;;;21.09;18.30;99382.84;6157998;28;126117;-62
2021/01/10 11:37:16;;;;;;;;;22.40;20.00;;;;;21.54;17.33;99378.31;6158475;28;127421;-59
2021/01/10 11:40:17;;;;;;;;;22.60;20.20;;;;;21.99;16.80;99383.56;6158605;28;125807;-59
2021/01/10 11:43:19;;;;;;;;;37.00;32.00;;;;;22.27;17.73;99386.72;6157831;28;126689;-59
2021/01/10 11:46:24;;;;;;;;;37.40;32.60;;;;;22.40;17.63;99386.88;6158242;28;127931;-59
2021/01/10 11:49:28;;;;;;;;;31.00;27.00;;;;;21.94;17.47;99375.38;6154335;28;125248;-59
2021/01/10 11:52:30;;;;;;;;;28.75;25.75;;;;;21.29;17.97;99375.69;6145087;28;126218;-59
2021/01/10 11:55:34;;;;;;;;;30.00;26.00;;;;;20.42;19.05;99380.47;6154555;28;126685;-59
2021/01/10 11:58:40;;;;;;;;;28.75;24.75;;;;;19.43;19.48;99367.88;6144395;28;125188;-59
2021/01/10 12:01:43;;;;;;;;;26.00;24.60;;;;;18.72;19.84;99383.06;6157761;28;122832;-60
2021/01/10 12:04:45;;;;;;;;;29.33;26.00;;;;;18.58;20.35;99385.44;6171423;28;126178;-60
2021/01/10 12:07:47;;;;;;;;;34.00;30.00;;;;;18.55;20.81;99382.41;6167052;28;126075;-60
2021/01/10 12:10:51;;;;;;;;;25.50;23.50;;;;;18.69;20.42;99385.50;6130723;28;124880;-59
2021/01/10 12:13:54;;;;;;;;;26.25;24.25;;;;;18.92;19.95;99379.66;6156685;28;124990;-59
2021/01/10 12:16:56;;;;;;;;;29.80;26.20;;;;;19.09;20.05;99382.22;6158066;28;128002;-58
2021/01/10 12:19:57;;;;;;;;;25.00;23.00;;;;;19.38;19.54;99380.72;6156509;28;126209;-60
2021/01/10 12:22:59;;;;;;;;;35.00;30.00;;;;;19.60;19.97;99366.88;6157392;28;126901;-58
2021/01/10 12:26:01;;;;;;;;;33.20;27.60;;;;;19.61;19.59;99328.31;6157214;28;125394;-57
2021/01/10 12:29:02;;;;;;;;;34.00;29.00;;;;;20.05;19.55;99366.16;6157985;28;126464;-58
2021/01/10 12:32:04;;;;;;;;;14.40;12.40;;;;;19.79;18.43;99368.84;6157504;28;126004;-58
2021/01/10 12:35:08;;;;;;;;;9.00;8.00;;;;;19.52;17.87;99356.47;6158213;28;126531;-58
2021/01/10 12:38:09;;;;;;;;;15.40;13.00;;;;;18.85;18.47;99368.13;6158702;28;127276;-59
2021/01/10 12:41:24;;;;;;;;;16.00;15.33;;;;;18.12;19.66;99365.09;6158081;28;127651;-59
2021/01/10 12:44:26;;;;;;;;;13.33;12.33;;;;;17.74;19.63;99366.06;6154278;28;126636;-59
2021/01/10 12:47:27;;;;;;;;;16.00;15.00;;;;;17.13;20.23;99360.94;6157366;28;126575;-59
2021/01/10 12:50:29;;;;;;;;;18.60;17.60;;;;;16.47;21.43;99362.69;6159188;28;125292;-61
2021/01/10 12:53:30;;;;;;;;;19.00;17.50;;;;;15.95;21.88;99362.91;6156330;28;125567;-58
2021/01/10 12:56:32;;;;;;;;;17.50;15.75;;;;;15.62;22.51;99359.28;6153858;28;127105;-58
2021/01/10 12:59:33;;;;;;;;;21.00;18.00;;;;;15.27;22.74;99373.78;6154624;28;127300;-58
2021/01/10 13:02:35;;;;;;;;;16.00;14.00;;;;;15.02;23.14;99365.09;6162863;28;127453;-60
2021/01/10 13:05:37;;;;;;;;;17.00;15.00;;;;;14.74;23.05;99374.81;6160305;28;125825;-58
2021/01/10 13:08:38;;;;;;;;;19.40;16.40;;;;;14.50;23.83;99367.75;6155198;28;127546;-58
2021/01/10 13:11:40;;;;;;;;;15.00;14.00;;;;;14.39;23.83;99376.69;6159517;28;126593;-58
2021/01/10 13:14:41;;;;;;;;;15.75;14.50;;;;;14.07;23.64;99327.34;6145578;28;126661;-58
2021/01/10 13:17:43;;;;;;;;;16.80;15.80;;;;;14.17;24.24;99378.28;6151768;28;125417;-58
2021/01/10 13:20:44;;;;;;;;;16.00;15.40;;;;;14.37;24.36;99376.09;6148642;28;127141;-58
2021/01/10 13:23:47;;;;;;;;;20.00;17.75;;;;;14.63;23.96;99372.09;6160508;28;127865;-59
2021/01/10 13:26:54;;;;;;;;;18.00;16.00;;;;;14.87;23.80;99362.88;6160135;28;128414;-58
2021/01/10 13:29:56;;;;;;;;;23.00;19.00;;;;;15.06;24.04;99355.41;6159494;28;124981;-57
2021/01/10 13:32:57;;;;;;;;;22.80;19.80;;;;;15.20;24.14;99364.94;6143886;28;125583;-57
2021/01/10 13:35:58;;;;;;;;;22.00;20.00;;;;;14.95;24.10;99313.66;6156961;28;128460;-58
2021/01/10 13:39:00;;;;;;;;;19.60;17.00;;;;;14.90;23.43;99307.28;6168787;28;129373;-58
2021/01/10 13:42:01;;;;;;;;;21.50;20.00;;;;;15.20;24.02;99362.22;6159093;28;125432;-58
2021/01/10 13:45:03;;;;;;;;;24.00;23.00;;;;;15.14;24.42;99368.63;6158282;28;126519;-58
2021/01/10 13:48:05;;;;;;;;;27.00;22.00;;;;;15.12;24.17;99366.16;6142949;28;125271;-58
2021/01/10 13:51:28;;;;;;;;;21.33;19.00;;;;;15.09;24.20;99363.91;6158973;28;125661;-59
2021/01/10 13:54:30;;;;;;;;;21.00;18.25;;;;;14.94;24.00;99369.03;6159420;28;126014;-58
2021/01/10 13:57:33;;;;;;;;;20.40;19.40;;;;;14.80;24.15;99381.19;6158996;28;125875;-58
2021/01/10 14:00:34;;;;;;;;;19.00;16.50;;;;;14.68;24.25;99370.34;6158733;28;124880;-59
2021/01/10 14:03:37;;;;;;;;;20.00;17.20;;;;;14.32;24.16;99333.34;6158214;28;127619;-58